createdAt,value
2022-08-06T00:00:07.917Z,100817.13
2022-08-06T00:03:01.391Z,100817.36
2022-08-06T00:05:34.979Z,100819.02
2022-08-06T00:08:04.472Z,100817.81
2022-08-06T00:10:35.928Z,100814.39
2022-08-06T00:13:05.531Z,100815.27
2022-08-06T00:16:09.697Z,100815.44
2022-08-06T00:18:31.594Z,100814.70
2022-08-06T00:21:00.550Z,100809.36
2022-08-06T00:23:52.276Z,100809.38
2022-08-06T00:26:18.267Z,100810.33
2022-08-06T00:28:47.000Z,100811.96
2022-08-06T00:31:16.347Z,100813.56
2022-08-06T00:33:56.740Z,100810.99
2022-08-06T00:36:30.389Z,100815.19
2022-08-06T00:39:08.959Z,100813.73
2022-08-06T00:41:42.454Z,100816.43
2022-08-06T00:44:30.342Z,100816.49
2022-08-06T00:47:00.938Z,100821.89
2022-08-06T00:49:49.188Z,100820.64
2022-08-06T00:52:19.496Z,100820.54
2022-08-06T00:54:50.061Z,100817.98
2022-08-06T00:57:22.570Z,100819.89
2022-08-06T00:59:51.799Z,100816.56
2022-08-06T01:02:23.577Z,100817.26
2022-08-06T01:05:07.004Z,100818.88
2022-08-06T01:07:51.203Z,100822.28
2022-08-06T01:10:31.046Z,100821.61
2022-08-06T01:13:23.383Z,100820.29
2022-08-06T01:16:09.554Z,100819.40
2022-08-06T01:18:59.038Z,100821.88
2022-08-06T01:22:31.185Z,100821.67
2022-08-06T01:25:23.420Z,100822.34
2022-08-06T01:28:06.977Z,100820.98
2022-08-06T01:30:44.364Z,100826.19
2022-08-06T01:33:30.467Z,100824.15
2022-08-06T01:36:07.103Z,100822.01
2022-08-06T01:38:50.647Z,100823.40
2022-08-06T01:41:54.818Z,100824.95
2022-08-06T01:44:36.240Z,100827.02
2022-08-06T01:47:16.383Z,100826.61
2022-08-06T01:50:00.666Z,100824.10
2022-08-06T01:52:59.491Z,100826.37
2022-08-06T01:55:56.300Z,100828.60
2022-08-06T01:58:33.017Z,100826.82
2022-08-06T02:01:09.989Z,100828.16
2022-08-06T02:03:50.364Z,100826.89
2022-08-06T02:06:41.898Z,100823.86
2022-08-06T02:09:22.824Z,100823.66
2022-08-06T02:12:06.777Z,100831.93
2022-08-06T02:14:48.386Z,100831.17
2022-08-06T02:17:48.644Z,100834.23
2022-08-06T02:20:19.253Z,100832.65
2022-08-06T02:23:04.142Z,100829.55
2022-08-06T02:25:36.487Z,100824.18
2022-08-06T02:28:06.604Z,100822.31
2022-08-06T02:30:43.179Z,100823.36
2022-08-06T02:33:18.150Z,100822.86
2022-08-06T02:36:02.683Z,100822.94
2022-08-06T02:38:52.271Z,100827.88
2022-08-06T02:42:05.193Z,100826.42
2022-08-06T02:45:14.310Z,100823.96
2022-08-06T02:48:03.528Z,100826.03
2022-08-06T02:50:53.469Z,100827.48
2022-08-06T02:54:02.746Z,100830.94
2022-08-06T02:56:29.290Z,100832.39
2022-08-06T02:59:00.464Z,100833.50
2022-08-06T03:01:39.294Z,100832.58
2022-08-06T03:04:15.552Z,100830.08
2022-08-06T03:06:48.061Z,100830.93
2022-08-06T03:09:19.723Z,100833.88
2022-08-06T03:11:49.714Z,100838.27
2022-08-06T03:15:04.372Z,100844.81
2022-08-06T03:17:12.549Z,100844.47
2022-08-06T03:19:55.927Z,100845.59
2022-08-06T03:22:34.735Z,100846.65
2022-08-06T03:25:08.747Z,100849.77
2022-08-06T03:27:43.701Z,100852.92
2022-08-06T03:30:31.444Z,100853.59
2022-08-06T03:33:28.746Z,100860.41
2022-08-06T03:36:02.396Z,100863.27
2022-08-06T03:38:41.008Z,100862.03
2022-08-06T03:41:11.917Z,100861.58
2022-08-06T03:44:02.961Z,100858.92
2022-08-06T03:46:47.883Z,100858.40
2022-08-06T03:49:40.516Z,100859.59
2022-08-06T03:52:17.757Z,100861.33
2022-08-06T03:54:56.673Z,100861.95
2022-08-06T03:57:40.543Z,100867.88
2022-08-06T04:00:28.054Z,100869.67
2022-08-06T04:03:02.911Z,100865.86
2022-08-06T04:05:34.517Z,100868.18
2022-08-06T04:08:09.263Z,100870.08
2022-08-06T04:10:56.722Z,100871.13
2022-08-06T04:14:03.878Z,100871.13
2022-08-06T04:16:32.917Z,100876.98
2022-08-06T04:19:09.300Z,100877.91
2022-08-06T04:22:59.377Z,100878.98
2022-08-06T04:24:32.404Z,100876.55
2022-08-06T04:27:09.725Z,100878.38
2022-08-06T04:29:57.347Z,100877.25
2022-08-06T04:32:32.034Z,100878.90
2022-08-06T04:36:07.838Z,100878.63
2022-08-06T04:38:00.957Z,100877.63
2022-08-06T04:40:35.689Z,100876.35
2022-08-06T04:43:19.528Z,100874.67
2022-08-06T04:46:18.105Z,100880.09
2022-08-06T04:48:47.037Z,100881.08
2022-08-06T04:52:34.562Z,100883.21
2022-08-06T04:54:07.284Z,100885.84
2022-08-06T04:56:42.434Z,100886.25
2022-08-06T04:59:19.430Z,100891.41
2022-08-06T05:01:56.685Z,100888.38
2022-08-06T05:04:34.545Z,100887.46
2022-08-06T05:07:51.952Z,100890.66
2022-08-06T05:10:31.485Z,100892.61
2022-08-06T05:13:02.032Z,100894.29
2022-08-06T05:15:50.974Z,100898.66
2022-08-06T05:19:20.996Z,100896.89
2022-08-06T05:22:06.040Z,100896.10
2022-08-06T05:24:38.812Z,100891.19
2022-08-06T05:27:17.937Z,100896.98
2022-08-06T05:29:52.403Z,100897.78
2022-08-06T05:32:24.747Z,100896.98
2022-08-06T05:34:54.068Z,100898.88
2022-08-06T05:38:02.110Z,100901.15
2022-08-06T05:40:12.113Z,100893.59
2022-08-06T05:42:40.976Z,100894.57
2022-08-06T05:45:26.357Z,100895.84
2022-08-06T05:47:59.505Z,100894.52
2022-08-06T05:50:36.189Z,100894.65
2022-08-06T05:53:20.633Z,100891.63
2022-08-06T05:56:38.430Z,100891.58
2022-08-06T05:59:38.173Z,100895.20
2022-08-06T06:02:28.474Z,100896.64
2022-08-06T06:06:04.769Z,100890.94
2022-08-06T06:08:08.464Z,100891.36
2022-08-06T06:10:43.733Z,100888.80
2022-08-06T06:13:39.674Z,100886.85
2022-08-06T06:16:47.528Z,100891.02
2022-08-06T06:19:38.932Z,100888.48
2022-08-06T06:22:37.250Z,100886.91
2022-08-06T06:25:08.700Z,100890.39
2022-08-06T06:28:04.649Z,100892.19
2022-08-06T06:32:04.326Z,100886.97
2022-08-06T06:35:33.852Z,100885.04
2022-08-06T06:38:36.230Z,100888.11
2022-08-06T06:41:24.225Z,100888.26
2022-08-06T06:45:04.650Z,100883.60
2022-08-06T06:47:59.233Z,100882.50
2022-08-06T06:50:46.544Z,100886.16
2022-08-06T06:53:19.432Z,100883.15
2022-08-06T06:56:02.686Z,100877.14
2022-08-06T06:59:00.224Z,100876.27
2022-08-06T07:01:33.251Z,100875.83
2022-08-06T07:04:09.674Z,100871.23
2022-08-06T07:06:44.353Z,100869.84
2022-08-06T07:09:41.314Z,100871.80
2022-08-06T07:12:20.034Z,100871.05
2022-08-06T07:15:00.673Z,100868.23
2022-08-06T07:17:46.244Z,100872.69
2022-08-06T07:20:30.298Z,100872.01
2022-08-06T07:24:07.213Z,100873.64
2022-08-06T07:26:51.081Z,100875.30
2022-08-06T07:29:49.624Z,100871.41
2022-08-06T07:32:32.610Z,100872.62
2022-08-06T07:35:12.678Z,100869.29
2022-08-06T07:37:59.371Z,100867.46
2022-08-06T07:40:46.177Z,100865.48
2022-08-06T07:43:33.051Z,100859.71
2022-08-06T07:46:10.198Z,100864.95
2022-08-06T07:49:17.908Z,100859.81
2022-08-06T07:51:49.359Z,100858.60
2022-08-06T07:54:33.989Z,100859.79
2022-08-06T07:57:53.470Z,100858.95
2022-08-06T08:00:27.436Z,100859.77
2022-08-06T08:03:43.145Z,100853.20
2022-08-06T08:07:18.399Z,100851.79
2022-08-06T08:10:02.705Z,100854.96
2022-08-06T08:12:37.590Z,100858.77
2022-08-06T08:15:17.842Z,100862.45
2022-08-06T08:18:35.584Z,100855.58
2022-08-06T08:21:05.020Z,100852.21
2022-08-06T08:23:38.986Z,100854.65
2022-08-06T08:26:13.855Z,100857.16
2022-08-06T08:28:42.638Z,100865.55
2022-08-06T08:31:21.047Z,100867.22
2022-08-06T08:34:43.889Z,100866.42
2022-08-06T08:37:23.921Z,100865.36
2022-08-06T08:39:54.906Z,100856.27
2022-08-06T08:42:38.301Z,100854.67
2022-08-06T08:45:13.129Z,100856.19
2022-08-06T08:47:53.749Z,100861.91
2022-08-06T08:50:31.356Z,100860.34
2022-08-06T08:54:19.535Z,100860.56
2022-08-06T08:57:07.337Z,100869.55
2022-08-06T09:00:26.291Z,100865.85
2022-08-06T09:02:57.228Z,100864.66
2022-08-06T09:05:27.136Z,100864.10
2022-08-06T09:08:04.478Z,100861.03
2022-08-06T09:10:36.459Z,100855.15
2022-08-06T09:13:22.875Z,100858.02
2022-08-06T09:15:57.334Z,100859.06
2022-08-06T09:18:59.544Z,100856.10
2022-08-06T09:21:34.242Z,100849.88
2022-08-06T09:24:05.671Z,100845.21
2022-08-06T09:26:52.741Z,100845.69
2022-08-06T09:29:31.714Z,100845.89
2022-08-06T09:32:15.345Z,100847.98
2022-08-06T09:34:46.643Z,100846.56
2022-08-06T09:37:46.936Z,100842.80
2022-08-06T09:40:21.287Z,100843.23
2022-08-06T09:42:52.030Z,100839.81
2022-08-06T09:45:43.225Z,100838.86
2022-08-06T09:48:17.819Z,100837.54
2022-08-06T09:50:51.545Z,100833.48
2022-08-06T09:53:22.945Z,100836.61
2022-08-06T09:55:57.577Z,100833.17
2022-08-06T10:04:05.283Z,100826.73
2022-08-06T10:06:22.259Z,100827.10
2022-08-06T10:09:11.998Z,100826.92
2022-08-06T10:12:00.663Z,100829.59
2022-08-06T10:14:34.886Z,100831.73
2022-08-06T10:17:21.668Z,100827.30
2022-08-06T10:20:12.357Z,100829.04
2022-08-06T10:22:58.825Z,100829.56
2022-08-06T10:25:31.024Z,100831.29
2022-08-06T10:28:16.011Z,100823.66
2022-08-06T10:30:46.440Z,100820.08
2022-08-06T10:33:22.743Z,100824.17
2022-08-06T10:36:10.223Z,100828.80
2022-08-06T10:38:52.915Z,100831.39
2022-08-06T10:41:59.079Z,100830.23
2022-08-06T10:44:53.882Z,100828.96
2022-08-06T10:49:00.539Z,100825.40
2022-08-06T10:50:30.394Z,100823.23
2022-08-06T10:53:06.528Z,100823.86
2022-08-06T10:55:44.235Z,100824.95
2022-08-06T10:58:14.980Z,100831.68
2022-08-06T11:00:53.098Z,100831.66
2022-08-06T11:03:39.534Z,100828.20
2022-08-06T11:06:35.892Z,100829.77
2022-08-06T11:09:59.799Z,100821.98
2022-08-06T11:12:47.893Z,100818.09
2022-08-06T11:15:22.626Z,100817.22
2022-08-06T11:17:55.902Z,100816.42
2022-08-06T11:21:01.518Z,100812.81
2022-08-06T11:23:58.937Z,100817.81
2022-08-06T11:26:44.438Z,100820.92
2022-08-06T11:29:16.518Z,100819.15
2022-08-06T11:32:50.978Z,100815.71
2022-08-06T11:35:36.232Z,100814.45
2022-08-06T11:38:55.475Z,100813.06
2022-08-06T11:41:51.618Z,100809.11
2022-08-06T11:44:21.643Z,100804.79
2022-08-06T11:47:30.782Z,100800.75
2022-08-06T11:50:47.063Z,100803.47
2022-08-06T11:53:52.191Z,100799.71
2022-08-06T11:56:25.457Z,100793.53
2022-08-06T11:59:17.207Z,100792.05
2022-08-06T12:01:49.252Z,100791.97
2022-08-06T12:04:58.957Z,100789.47
2022-08-06T12:07:33.588Z,100788.65
2022-08-06T12:10:13.096Z,100786.51
2022-08-06T12:13:42.883Z,100791.09
2022-08-06T12:16:39.029Z,100785.23
2022-08-06T12:19:14.785Z,100786.82
2022-08-06T12:21:49.206Z,100785.77
2022-08-06T12:24:25.233Z,100784.35
2022-08-06T12:26:55.110Z,100777.54
2022-08-06T12:29:41.604Z,100776.00
2022-08-06T12:32:29.131Z,100777.80
2022-08-06T12:35:04.625Z,100776.81
2022-08-06T12:42:53.241Z,100776.17
2022-08-06T12:46:04.656Z,100772.67
2022-08-06T12:48:12.096Z,100773.17
2022-08-06T12:50:43.727Z,100776.42
2022-08-06T12:53:20.718Z,100773.90
2022-08-06T12:55:56.704Z,100782.36
2022-08-06T12:58:45.484Z,100779.06
2022-08-06T13:02:10.902Z,100772.70
2022-08-06T13:04:16.345Z,100779.17
2022-08-06T13:06:48.859Z,100780.38
2022-08-06T13:09:21.552Z,100776.57
2022-08-06T13:11:51.493Z,100774.04
2022-08-06T13:15:46.300Z,100775.75
2022-08-06T13:18:41.795Z,100767.80
2022-08-06T13:21:33.740Z,100769.91
2022-08-06T13:24:30.819Z,100768.52
2022-08-06T13:27:07.998Z,100764.73
2022-08-06T13:30:32.299Z,100766.46
2022-08-06T13:32:33.528Z,100766.80
2022-08-06T13:35:17.858Z,100762.90
2022-08-06T13:38:42.154Z,100762.69
2022-08-06T13:42:15.418Z,100759.98
2022-08-06T13:44:47.262Z,100758.45
2022-08-06T13:47:38.188Z,100760.56
2022-08-06T13:50:20.786Z,100760.45
2022-08-06T13:53:00.774Z,100759.48
2022-08-06T13:56:03.684Z,100754.91
2022-08-06T13:58:33.049Z,100759.08
2022-08-06T14:01:02.105Z,100760.60
2022-08-06T14:03:38.274Z,100758.24
2022-08-06T14:06:10.627Z,100758.45
2022-08-06T14:09:03.844Z,100756.11
2022-08-06T14:13:02.976Z,100757.55
2022-08-06T14:15:42.265Z,100755.00
2022-08-06T14:18:17.064Z,100754.52
2022-08-06T14:20:47.032Z,100756.27
2022-08-06T14:23:16.081Z,100757.06
2022-08-06T14:25:59.816Z,100757.52
2022-08-06T14:28:32.376Z,100755.89
2022-08-06T14:31:01.289Z,100754.45
2022-08-06T14:33:47.882Z,100749.86
2022-08-06T14:37:14.514Z,100749.41
2022-08-06T14:41:01.366Z,100745.17
2022-08-06T14:43:56.638Z,100743.91
2022-08-06T14:46:30.611Z,100744.08
2022-08-06T14:49:05.736Z,100747.90
2022-08-06T14:52:19.413Z,100742.17
2022-08-06T14:55:10.235Z,100748.30
2022-08-06T14:58:11.405Z,100746.71
2022-08-06T15:00:40.452Z,100743.94
2022-08-06T15:03:13.474Z,100750.06
2022-08-06T15:06:04.265Z,100748.89
2022-08-06T15:08:35.863Z,100754.73
2022-08-06T15:11:17.940Z,100752.53
2022-08-06T15:13:51.646Z,100744.35
2022-08-06T15:16:47.594Z,100746.95
2022-08-06T15:19:30.271Z,100743.52
2022-08-06T15:22:01.328Z,100744.23
2022-08-06T15:24:35.736Z,100739.58
2022-08-06T15:27:09.217Z,100739.16
2022-08-06T15:29:38.413Z,100734.24
2022-08-06T15:32:17.753Z,100734.83
2022-08-06T15:36:08.490Z,100737.62
2022-08-06T15:38:41.062Z,100734.50
2022-08-06T15:41:11.313Z,100735.20
2022-08-06T15:43:51.414Z,100739.36
2022-08-06T15:48:28.625Z,100738.48
2022-08-06T15:51:30.008Z,100736.37
2022-08-06T15:53:57.728Z,100733.73
2022-08-06T15:57:06.761Z,100729.15
2022-08-06T16:01:55.388Z,100732.56
2022-08-06T16:05:32.359Z,100733.48
2022-08-06T16:08:32.982Z,100734.83
2022-08-06T16:11:47.986Z,100736.35
2022-08-06T16:14:36.763Z,100729.58
2022-08-06T16:17:09.733Z,100733.92
2022-08-06T16:19:49.073Z,100735.31
2022-08-06T16:22:19.461Z,100735.56
2022-08-06T16:24:49.183Z,100735.46
2022-08-06T16:27:20.823Z,100733.58
2022-08-06T16:29:50.349Z,100735.46
2022-08-06T16:32:59.994Z,100734.27
2022-08-06T16:35:29.804Z,100729.33
2022-08-06T16:38:02.266Z,100727.27
2022-08-06T16:40:31.660Z,100728.26
2022-08-06T16:43:00.573Z,100724.96
2022-08-06T16:45:37.351Z,100730.70
2022-08-06T16:48:25.656Z,100731.60
2022-08-06T16:51:02.267Z,100733.72
2022-08-06T16:55:27.788Z,100734.76
2022-08-06T16:58:41.858Z,100738.45
2022-08-06T17:02:14.230Z,100740.45
2022-08-06T17:04:03.636Z,100738.13
2022-08-06T17:06:37.683Z,100737.64
2022-08-06T17:09:17.319Z,100737.77
2022-08-06T17:18:03.612Z,100747.50
2022-08-06T17:20:33.523Z,100753.20
2022-08-06T17:25:54.108Z,100757.22
2022-08-06T17:31:58.361Z,100759.79
2022-08-06T17:34:30.731Z,100763.20
2022-08-06T17:37:03.788Z,100764.91
2022-08-06T17:39:51.762Z,100763.08
2022-08-06T17:42:20.706Z,100763.31
2022-08-06T17:45:31.286Z,100763.96
2022-08-06T17:48:01.515Z,100763.71
2022-08-06T17:50:42.358Z,100767.53
2022-08-06T17:53:20.172Z,100770.46
2022-08-06T17:56:00.019Z,100773.80
2022-08-06T17:58:39.163Z,100774.67
2022-08-06T18:01:43.980Z,100779.77
2022-08-06T18:04:21.879Z,100785.27
2022-08-06T18:06:58.396Z,100785.86
2022-08-06T18:10:10.856Z,100785.21
2022-08-06T18:12:52.885Z,100788.88
2022-08-06T18:15:40.280Z,100794.86
2022-08-06T18:18:10.622Z,100792.14
2022-08-06T18:20:43.919Z,100794.59
2022-08-06T18:23:20.782Z,100794.67
2022-08-06T18:25:56.034Z,100796.56
2022-08-06T18:29:20.481Z,100801.73
2022-08-06T18:31:58.544Z,100802.16
2022-08-06T18:34:30.018Z,100802.61
2022-08-06T18:37:05.740Z,100803.15
2022-08-06T18:40:38.803Z,100801.35
2022-08-06T18:43:09.623Z,100803.54
2022-08-06T18:45:59.131Z,100805.77
2022-08-06T18:48:29.456Z,100807.10
2022-08-06T18:50:58.653Z,100809.15
2022-08-06T18:54:01.526Z,100806.05
2022-08-06T18:56:17.028Z,100806.58
2022-08-06T18:58:46.992Z,100809.85
2022-08-06T19:01:21.046Z,100811.58
2022-08-06T19:03:52.439Z,100813.94
2022-08-06T19:06:29.359Z,100812.66
2022-08-06T19:08:59.152Z,100811.92
2022-08-06T19:11:38.876Z,100812.52
2022-08-06T19:14:19.654Z,100814.56
2022-08-06T19:16:50.715Z,100818.98
2022-08-06T19:19:46.143Z,100814.27
2022-08-06T19:22:18.431Z,100816.90
2022-08-06T19:24:57.189Z,100817.31
2022-08-06T19:28:31.436Z,100817.56
2022-08-06T19:30:38.791Z,100821.48
2022-08-06T19:33:16.532Z,100823.81
2022-08-06T19:36:07.346Z,100825.21
2022-08-06T19:38:35.688Z,100827.31
2022-08-06T19:41:06.902Z,100825.90
2022-08-06T19:44:27.350Z,100824.77
2022-08-06T19:46:29.252Z,100825.52
2022-08-06T19:49:00.778Z,100822.24
2022-08-06T19:52:04.027Z,100827.73
2022-08-06T19:54:26.138Z,100822.13
2022-08-06T19:57:08.348Z,100820.61
2022-08-06T20:00:51.855Z,100820.33
2022-08-06T20:02:28.788Z,100823.29
2022-08-06T20:04:59.260Z,100820.98
2022-08-06T20:08:40.374Z,100822.33
2022-08-06T20:12:02.307Z,100819.86
2022-08-06T20:14:03.129Z,100818.38
2022-08-06T20:16:31.957Z,100818.75
2022-08-06T20:19:00.650Z,100822.79
2022-08-06T20:21:43.231Z,100822.59
2022-08-06T20:24:15.348Z,100821.96
2022-08-06T20:26:59.180Z,100824.59
2022-08-06T20:29:34.598Z,100825.78
2022-08-06T20:32:18.814Z,100827.13
2022-08-06T20:34:51.900Z,100828.18
2022-08-06T20:37:20.575Z,100829.58
2022-08-06T20:39:50.797Z,100828.41
2022-08-06T20:42:20.199Z,100828.95
2022-08-06T20:44:51.771Z,100825.92
2022-08-06T20:47:45.595Z,100824.11
2022-08-06T20:50:12.086Z,100821.91
2022-08-06T20:52:41.497Z,100826.80
2022-08-06T20:55:14.452Z,100825.64
2022-08-06T20:57:47.761Z,100824.98
2022-08-06T21:00:27.880Z,100823.21
2022-08-06T21:03:27.848Z,100826.36
2022-08-06T21:05:47.163Z,100828.84
2022-08-06T21:08:27.195Z,100828.46
2022-08-06T21:11:00.580Z,100828.98
2022-08-06T21:13:59.611Z,100826.30
2022-08-06T21:17:01.209Z,100824.88
2022-08-06T21:19:40.940Z,100830.98
2022-08-06T21:22:10.950Z,100816.46
2022-08-06T21:24:39.639Z,100829.36
2022-08-06T21:27:48.739Z,100825.93
2022-08-06T21:30:36.959Z,100824.80
2022-08-06T21:33:06.334Z,100826.16
2022-08-06T21:35:45.742Z,100825.50
2022-08-06T21:38:24.753Z,100828.21
2022-08-06T21:40:56.626Z,100828.10
2022-08-06T21:43:29.276Z,100831.97
2022-08-06T21:46:27.237Z,100831.20
2022-08-06T21:48:58.202Z,100830.60
2022-08-06T21:52:28.168Z,100831.35
2022-08-06T21:56:38.750Z,100833.67
2022-08-06T21:58:03.910Z,100809.75
2022-08-06T22:00:42.233Z,100834.17
2022-08-06T22:04:35.273Z,100835.67
2022-08-06T22:09:58.092Z,100841.27
2022-08-06T22:12:36.916Z,100844.32
2022-08-06T22:15:12.303Z,100837.60
2022-08-06T22:18:02.048Z,100844.83
2022-08-06T22:20:31.038Z,100841.36
2022-08-06T22:23:02.079Z,100846.56
2022-08-06T22:25:31.210Z,100850.94
2022-08-06T22:28:03.229Z,100851.81
2022-08-06T22:30:33.200Z,100848.09
2022-08-06T22:33:12.286Z,100845.34
2022-08-06T22:35:57.476Z,100833.75
2022-08-06T22:38:32.246Z,100836.58
2022-08-06T22:41:01.360Z,100841.71
2022-08-06T22:43:57.007Z,100843.70
2022-08-06T22:46:18.753Z,100843.87
2022-08-06T22:48:50.081Z,100844.68
2022-08-06T22:51:34.297Z,100848.15
2022-08-06T22:54:28.988Z,100849.77
2022-08-06T22:57:03.128Z,100847.08
2022-08-06T23:00:10.934Z,100841.15
2022-08-06T23:02:24.738Z,100836.58
2022-08-06T23:04:54.997Z,100837.41
2022-08-06T23:07:26.227Z,100834.04
2022-08-06T23:10:04.448Z,100832.11
2022-08-06T23:12:36.716Z,100829.04
2022-08-06T23:15:30.555Z,100834.04
2022-08-06T23:18:00.408Z,100839.38
2022-08-06T23:20:32.916Z,100842.84
2022-08-06T23:23:04.767Z,100843.27
2022-08-06T23:26:01.136Z,100844.59
2022-08-06T23:28:23.299Z,100841.00
2022-08-06T23:30:57.093Z,100843.27
2022-08-06T23:33:38.764Z,100839.48
2022-08-06T23:36:16.133Z,100835.86
2022-08-06T23:38:44.811Z,100838.39
2022-08-06T23:41:24.449Z,100842.89
2022-08-06T23:44:18.675Z,100841.05
2022-08-06T23:46:51.094Z,100840.30
2022-08-06T23:49:27.513Z,100841.46
2022-08-06T23:52:03.447Z,100841.63
2022-08-06T23:54:33.343Z,100838.64
2022-08-06T23:57:03.954Z,100843.93
2022-08-06T23:59:45.344Z,100843.48
